sensor_id;sensor_type;location;lat;lon;timestamp;pressure;altitude;pressure_sealevel;temperature;humidity
35989;BME280;22064;42.672;23.282;2023-04-30T00:01:47;94370.00;;;9.97;100.00
35989;BME280;22064;42.672;23.282;2023-04-30T00:04:13;94368.22;;;9.75;100.00
35989;BME280;22064;42.672;23.282;2023-04-30T00:06:39;94372.03;;;9.67;100.00
35989;BME280;22064;42.672;23.282;2023-04-30T00:09:05;94366.44;;;9.59;100.00
35989;BME280;22064;42.672;23.282;2023-04-30T00:11:31;94360.28;;;9.65;100.00
35989;BME280;22064;42.672;23.282;2023-04-30T00:13:57;94361.06;;;9.65;100.00
35989;BME280;22064;42.672;23.282;2023-04-30T00:16:23;94369.50;;;9.73;100.00
35989;BME280;22064;42.672;23.282;2023-04-30T00:18:49;94369.06;;;9.59;100.00
35989;BME280;22064;42.672;23.282;2023-04-30T00:21:14;94364.69;;;9.42;100.00
35989;BME280;22064;42.672;23.282;2023-04-30T00:23:41;94366.63;;;9.30;100.00
35989;BME280;22064;42.672;23.282;2023-04-30T00:26:07;94368.06;;;9.21;100.00
35989;BME280;22064;42.672;23.282;2023-04-30T00:28:32;94363.63;;;9.21;100.00
35989;BME280;22064;42.672;23.282;2023-04-30T00:30:58;94365.41;;;9.16;100.00
35989;BME280;22064;42.672;23.282;2023-04-30T00:33:24;94369.56;;;9.17;100.00
35989;BME280;22064;42.672;23.282;2023-04-30T00:35:50;94367.75;;;9.17;100.00
35989;BME280;22064;42.672;23.282;2023-04-30T00:38:16;94369.22;;;9.30;100.00
35989;BME280;22064;42.672;23.282;2023-04-30T00:40:43;94368.56;;;9.40;100.00
35989;BME280;22064;42.672;23.282;2023-04-30T00:43:08;94369.66;;;9.44;100.00
35989;BME280;22064;42.672;23.282;2023-04-30T00:45:34;94364.91;;;9.19;100.00
35989;BME280;22064;42.672;23.282;2023-04-30T00:48:00;94364.41;;;9.22;100.00
35989;BME280;22064;42.672;23.282;2023-04-30T00:50:28;94360.88;;;9.28;100.00
35989;BME280;22064;42.672;23.282;2023-04-30T00:52:54;94364.28;;;9.29;100.00
35989;BME280;22064;42.672;23.282;2023-04-30T00:55:20;94366.25;;;9.43;100.00
35989;BME280;22064;42.672;23.282;2023-04-30T00:57:46;94360.34;;;9.48;100.00
35989;BME280;22064;42.672;23.282;2023-04-30T01:00:13;94360.59;;;9.46;100.00
35989;BME280;22064;42.672;23.282;2023-04-30T01:02:39;94362.75;;;9.33;100.00
35989;BME280;22064;42.672;23.282;2023-04-30T01:05:06;94357.31;;;9.34;100.00
35989;BME280;22064;42.672;23.282;2023-04-30T01:07:34;94354.22;;;9.37;100.00
35989;BME280;22064;42.672;23.282;2023-04-30T01:10:00;94356.31;;;9.35;100.00
35989;BME280;22064;42.672;23.282;2023-04-30T01:12:42;94362.56;;;9.17;100.00
35989;BME280;22064;42.672;23.282;2023-04-30T01:17:56;94356.88;;;9.20;100.00
35989;BME280;22064;42.672;23.282;2023-04-30T01:20:27;94348.28;;;8.98;100.00
35989;BME280;22064;42.672;23.282;2023-04-30T01:22:59;94361.47;;;8.96;100.00
35989;BME280;22064;42.672;23.282;2023-04-30T01:30:40;94361.56;;;9.01;100.00
35989;BME280;22064;42.672;23.282;2023-04-30T01:33:10;94361.47;;;8.96;100.00
35989;BME280;22064;42.672;23.282;2023-04-30T01:36:14;94357.28;;;9.12;100.00
35989;BME280;22064;42.672;23.282;2023-04-30T01:42:20;94367.31;;;9.04;100.00
35989;BME280;22064;42.672;23.282;2023-04-30T01:47:56;94368.53;;;9.18;100.00
35989;BME280;22064;42.672;23.282;2023-04-30T01:50:52;94361.78;;;9.17;100.00
35989;BME280;22064;42.672;23.282;2023-04-30T01:53:23;94373.19;;;9.16;100.00
35989;BME280;22064;42.672;23.282;2023-04-30T01:55:58;94361.53;;;9.18;100.00
35989;BME280;22064;42.672;23.282;2023-04-30T01:58:26;94362.63;;;9.22;100.00
35989;BME280;22064;42.672;23.282;2023-04-30T02:00:52;94364.41;;;9.22;100.00
35989;BME280;22064;42.672;23.282;2023-04-30T02:03:18;94362.22;;;9.31;100.00
35989;BME280;22064;42.672;23.282;2023-04-30T02:05:44;94354.84;;;9.22;100.00
35989;BME280;22064;42.672;23.282;2023-04-30T02:08:10;94365.53;;;9.26;100.00
35989;BME280;22064;42.672;23.282;2023-04-30T02:10:36;94353.06;;;9.28;100.00
35989;BME280;22064;42.672;23.282;2023-04-30T02:13:02;94354.66;;;9.29;100.00
35989;BME280;22064;42.672;23.282;2023-04-30T02:15:28;94365.66;;;9.36;100.00
35989;BME280;22064;42.672;23.282;2023-04-30T02:17:54;94366.69;;;9.35;100.00
35989;BME280;22064;42.672;23.282;2023-04-30T02:20:20;94354.00;;;9.39;100.00
35989;BME280;22064;42.672;23.282;2023-04-30T02:22:46;94366.75;;;9.40;100.00
35989;BME280;22064;42.672;23.282;2023-04-30T02:25:12;94354.22;;;9.37;100.00
35989;BME280;22064;42.672;23.282;2023-04-30T02:27:38;94351.41;;;9.39;100.00
35989;BME280;22064;42.672;23.282;2023-04-30T02:30:06;94356.81;;;9.37;100.00
35989;BME280;22064;42.672;23.282;2023-04-30T02:32:33;94350.25;;;9.30;100.00
35989;BME280;22064;42.672;23.282;2023-04-30T02:34:58;94347.25;;;9.38;100.00
35989;BME280;22064;42.672;23.282;2023-04-30T02:37:24;94358.78;;;9.47;100.00
35989;BME280;22064;42.672;23.282;2023-04-30T02:39:51;94356.72;;;9.27;100.00
35989;BME280;22064;42.672;23.282;2023-04-30T02:42:17;94358.00;;;9.08;100.00
35989;BME280;22064;42.672;23.282;2023-04-30T02:44:43;94354.09;;;8.88;100.00
35989;BME280;22064;42.672;23.282;2023-04-30T02:47:09;94351.75;;;8.70;100.00
35989;BME280;22064;42.672;23.282;2023-04-30T02:49:35;94354.19;;;8.76;100.00
35989;BME280;22064;42.672;23.282;2023-04-30T02:52:01;94360.47;;;8.97;100.00
35989;BME280;22064;42.672;23.282;2023-04-30T02:54:27;94357.41;;;9.00;100.00
35989;BME280;22064;42.672;23.282;2023-04-30T02:56:53;94357.31;;;8.95;100.00
35989;BME280;22064;42.672;23.282;2023-04-30T02:59:19;94366.38;;;8.93;100.00
35989;BME280;22064;42.672;23.282;2023-04-30T03:01:45;94374.06;;;9.05;100.00
35989;BME280;22064;42.672;23.282;2023-04-30T03:04:11;94364.31;;;8.95;100.00
35989;BME280;22064;42.672;23.282;2023-04-30T03:06:37;94375.56;;;9.00;100.00
35989;BME280;22064;42.672;23.282;2023-04-30T03:09:03;94367.94;;;8.94;100.00
35989;BME280;22064;42.672;23.282;2023-04-30T03:11:29;94364.78;;;8.75;100.00
35989;BME280;22064;42.672;23.282;2023-04-30T03:13:56;94371.03;;;8.74;100.00
35989;BME280;22064;42.672;23.282;2023-04-30T03:16:21;94376.13;;;8.69;100.00
35989;BME280;22064;42.672;23.282;2023-04-30T03:18:48;94367.41;;;8.92;100.00
35989;BME280;22064;42.672;23.282;2023-04-30T03:21:14;94380.34;;;9.09;100.00
35989;BME280;22064;42.672;23.282;2023-04-30T03:23:40;94380.34;;;9.09;100.00
35989;BME280;22064;42.672;23.282;2023-04-30T03:26:06;94379.41;;;9.15;100.00
35989;BME280;22064;42.672;23.282;2023-04-30T03:28:33;94387.81;;;9.22;100.00
35989;BME280;22064;42.672;23.282;2023-04-30T03:31:00;94383.03;;;9.14;100.00
35989;BME280;22064;42.672;23.282;2023-04-30T03:33:30;94373.03;;;9.22;100.00
35989;BME280;22064;42.672;23.282;2023-04-30T03:35:56;94386.34;;;9.48;100.00
35989;BME280;22064;42.672;23.282;2023-04-30T03:38:22;94386.53;;;9.41;100.00
35989;BME280;22064;42.672;23.282;2023-04-30T03:40:48;94390.13;;;9.40;100.00
35989;BME280;22064;42.672;23.282;2023-04-30T03:43:14;94385.94;;;9.17;100.00
35989;BME280;22064;42.672;23.282;2023-04-30T03:45:40;94400.97;;;9.15;100.00
35989;BME280;22064;42.672;23.282;2023-04-30T03:48:06;94389.56;;;9.16;100.00
35989;BME280;22064;42.672;23.282;2023-04-30T03:50:32;94402.88;;;9.20;100.00
35989;BME280;22064;42.672;23.282;2023-04-30T03:52:58;94398.19;;;9.22;100.00
35989;BME280;22064;42.672;23.282;2023-04-30T03:55:24;94396.56;;;9.16;100.00
35989;BME280;22064;42.672;23.282;2023-04-30T03:57:50;94404.97;;;9.23;100.00
35989;BME280;22064;42.672;23.282;2023-04-30T04:00:16;94413.56;;;9.23;100.00
35989;BME280;22064;42.672;23.282;2023-04-30T04:02:47;94410.34;;;8.99;100.00
35989;BME280;22064;42.672;23.282;2023-04-30T04:05:13;94410.28;;;8.94;100.00
35989;BME280;22064;42.672;23.282;2023-04-30T04:07:39;94407.03;;;8.87;100.00
35989;BME280;22064;42.672;23.282;2023-04-30T04:10:06;94419.03;;;8.88;100.00
35989;BME280;22064;42.672;23.282;2023-04-30T04:12:32;94413.44;;;8.79;100.00
35989;BME280;22064;42.672;23.282;2023-04-30T04:14:58;94419.88;;;8.77;100.00
35989;BME280;22064;42.672;23.282;2023-04-30T04:17:24;94409.03;;;8.63;100.00
35989;BME280;22064;42.672;23.282;2023-04-30T04:19:50;94407.66;;;8.61;100.00
35989;BME280;22064;42.672;23.282;2023-04-30T04:22:17;94419.88;;;8.77;100.00
35989;BME280;22064;42.672;23.282;2023-04-30T04:24:44;94416.41;;;8.88;100.00
35989;BME280;22064;42.672;23.282;2023-04-30T04:27:13;94425.69;;;8.84;100.00
35989;BME280;22064;42.672;23.282;2023-04-30T04:29:40;94426.41;;;8.79;100.00
35989;BME280;22064;42.672;23.282;2023-04-30T04:32:06;94423.97;;;8.73;100.00
35989;BME280;22064;42.672;23.282;2023-04-30T04:34:32;94413.50;;;8.68;100.00
35989;BME280;22064;42.672;23.282;2023-04-30T04:36:58;94420.97;;;8.81;100.00
35989;BME280;22064;42.672;23.282;2023-04-30T04:39:24;94426.00;;;8.88;100.00
35989;BME280;22064;42.672;23.282;2023-04-30T04:41:50;94437.41;;;8.87;100.00
35989;BME280;22064;42.672;23.282;2023-04-30T04:44:16;94429.63;;;8.70;100.00
35989;BME280;22064;42.672;23.282;2023-04-30T04:46:43;94433.88;;;8.76;100.00
35989;BME280;22064;42.672;23.282;2023-04-30T04:49:10;94414.53;;;8.67;100.00
35989;BME280;22064;42.672;23.282;2023-04-30T04:51:37;94438.75;;;8.89;100.00
35989;BME280;22064;42.672;23.282;2023-04-30T04:54:04;94434.44;;;8.95;100.00
35989;BME280;22064;42.672;23.282;2023-04-30T04:56:31;94442.84;;;9.02;100.00
35989;BME280;22064;42.672;23.282;2023-04-30T04:58:57;94441.69;;;9.10;100.00
35989;BME280;22064;42.672;23.282;2023-04-30T05:01:23;94443.22;;;9.28;100.00
35989;BME280;22064;42.672;23.282;2023-04-30T05:03:49;94446.59;;;9.45;100.00
35989;BME280;22064;42.672;23.282;2023-04-30T05:06:18;94448.16;;;9.63;100.00
35989;BME280;22064;42.672;23.282;2023-04-30T05:08:44;94439.41;;;9.91;100.00
35989;BME280;22064;42.672;23.282;2023-04-30T05:11:10;94442.19;;;10.06;100.00
35989;BME280;22064;42.672;23.282;2023-04-30T05:13:36;94429.75;;;10.13;100.00
35989;BME280;22064;42.672;23.282;2023-04-30T05:16:02;94441.84;;;10.03;100.00
35989;BME280;22064;42.672;23.282;2023-04-30T05:18:28;94430.19;;;9.83;100.00
35989;BME280;22064;42.672;23.282;2023-04-30T05:20:53;94439.06;;;9.87;100.00
35989;BME280;22064;42.672;23.282;2023-04-30T05:23:19;94447.53;;;10.00;100.00
35989;BME280;22064;42.672;23.282;2023-04-30T05:25:50;94442.03;;;10.18;100.00
35989;BME280;22064;42.672;23.282;2023-04-30T05:28:17;94440.66;;;10.32;100.00
35989;BME280;22064;42.672;23.282;2023-04-30T05:30:42;94447.41;;;10.28;100.00
35989;BME280;22064;42.672;23.282;2023-04-30T05:33:08;94450.81;;;10.12;100.00
35989;BME280;22064;42.672;23.282;2023-04-30T05:35:34;94447.31;;;10.23;100.00
35989;BME280;22064;42.672;23.282;2023-04-30T05:38:01;94450.00;;;10.55;100.00
35989;BME280;22064;42.672;23.282;2023-04-30T05:40:28;94447.03;;;10.69;100.00
35989;BME280;22064;42.672;23.282;2023-04-30T05:42:54;94455.34;;;10.98;100.00
35989;BME280;22064;42.672;23.282;2023-04-30T05:45:20;94438.31;;;11.22;100.00
35989;BME280;22064;42.672;23.282;2023-04-30T05:47:46;94453.69;;;11.61;100.00
35989;BME280;22064;42.672;23.282;2023-04-30T05:50:12;94440.75;;;11.82;100.00
35989;BME280;22064;42.672;23.282;2023-04-30T05:52:38;94441.44;;;12.14;100.00
35989;BME280;22064;42.672;23.282;2023-04-30T05:55:05;94443.59;;;12.38;100.00
35989;BME280;22064;42.672;23.282;2023-04-30T05:57:31;94448.63;;;12.60;100.00
35989;BME280;22064;42.672;23.282;2023-04-30T05:59:56;94447.00;;;12.38;100.00
35989;BME280;22064;42.672;23.282;2023-04-30T06:02:22;94450.66;;;12.42;100.00
35989;BME280;22064;42.672;23.282;2023-04-30T06:04:48;94451.22;;;12.60;100.00
35989;BME280;22064;42.672;23.282;2023-04-30T06:07:14;94457.22;;;12.50;100.00
35989;BME280;22064;42.672;23.282;2023-04-30T06:09:40;94458.72;;;12.36;100.00
35989;BME280;22064;42.672;23.282;2023-04-30T06:12:06;94465.16;;;12.02;100.00
35989;BME280;22064;42.672;23.282;2023-04-30T06:14:31;94465.25;;;11.80;100.00
35989;BME280;22064;42.672;23.282;2023-04-30T06:16:57;94461.50;;;11.56;100.00
35989;BME280;22064;42.672;23.282;2023-04-30T06:19:24;94465.59;;;11.47;100.00
35989;BME280;22064;42.672;23.282;2023-04-30T06:21:50;94446.66;;;11.19;100.00
35989;BME280;22064;42.672;23.282;2023-04-30T06:24:16;94465.72;;;11.30;100.00
35989;BME280;22064;42.672;23.282;2023-04-30T06:26:41;94463.88;;;11.25;100.00
35989;BME280;22064;42.672;23.282;2023-04-30T06:29:08;94458.25;;;11.39;100.00
35989;BME280;22064;42.672;23.282;2023-04-30T06:31:34;94476.31;;;11.55;100.00
35989;BME280;22064;42.672;23.282;2023-04-30T06:34:00;94464.50;;;11.43;100.00
35989;BME280;22064;42.672;23.282;2023-04-30T06:36:26;94477.13;;;11.19;100.00
35989;BME280;22064;42.672;23.282;2023-04-30T06:38:51;94472.69;;;11.19;100.00
35989;BME280;22064;42.672;23.282;2023-04-30T06:41:17;94449.84;;;10.99;100.00
35989;BME280;22064;42.672;23.282;2023-04-30T06:43:43;94471.06;;;11.45;100.00
35989;BME280;22064;42.672;23.282;2023-04-30T06:46:09;94467.06;;;11.80;100.00
35989;BME280;22064;42.672;23.282;2023-04-30T06:48:36;94465.78;;;12.35;100.00
35989;BME280;22064;42.672;23.282;2023-04-30T06:51:02;94472.91;;;12.60;100.00
35989;BME280;22064;42.672;23.282;2023-04-30T06:53:28;94479.75;;;12.92;100.00
35989;BME280;22064;42.672;23.282;2023-04-30T06:55:54;94478.22;;;13.52;100.00
35989;BME280;22064;42.672;23.282;2023-04-30T06:58:20;94478.44;;;13.66;100.00
35989;BME280;22064;42.672;23.282;2023-04-30T07:00:46;94475.56;;;13.57;100.00
35989;BME280;22064;42.672;23.282;2023-04-30T07:03:11;94475.31;;;13.74;100.00
35989;BME280;22064;42.672;23.282;2023-04-30T07:05:38;94473.88;;;14.13;100.00
35989;BME280;22064;42.672;23.282;2023-04-30T07:08:05;94470.06;;;14.49;100.00
35989;BME280;22064;42.672;23.282;2023-04-30T07:10:31;94473.78;;;14.93;100.00
35989;BME280;22064;42.672;23.282;2023-04-30T07:12:57;94472.16;;;14.52;100.00
35989;BME280;22064;42.672;23.282;2023-04-30T07:15:24;94478.84;;;14.14;100.00
35989;BME280;22064;42.672;23.282;2023-04-30T07:17:50;94472.81;;;14.14;100.00
35989;BME280;22064;42.672;23.282;2023-04-30T07:20:16;94477.59;;;13.91;100.00
35989;BME280;22064;42.672;23.282;2023-04-30T07:22:42;94473.41;;;13.95;100.00
35989;BME280;22064;42.672;23.282;2023-04-30T07:25:13;94472.75;;;14.34;100.00
35989;BME280;22064;42.672;23.282;2023-04-30T07:27:39;94467.03;;;14.22;100.00
35989;BME280;22064;42.672;23.282;2023-04-30T07:30:07;94472.75;;;14.34;100.00
35989;BME280;22064;42.672;23.282;2023-04-30T07:32:36;94480.63;;;14.29;100.00
35989;BME280;22064;42.672;23.282;2023-04-30T07:35:02;94479.53;;;14.35;100.00
35989;BME280;22064;42.672;23.282;2023-04-30T07:37:28;94476.69;;;14.31;100.00
35989;BME280;22064;42.672;23.282;2023-04-30T07:39:54;94481.53;;;13.89;100.00
35989;BME280;22064;42.672;23.282;2023-04-30T07:42:20;94483.41;;;13.78;100.00
35989;BME280;22064;42.672;23.282;2023-04-30T07:44:45;94489.72;;;13.61;100.00
35989;BME280;22064;42.672;23.282;2023-04-30T07:47:13;94491.81;;;13.49;100.00
35989;BME280;22064;42.672;23.282;2023-04-30T07:49:39;94491.81;;;13.54;100.00
35989;BME280;22064;42.672;23.282;2023-04-30T07:52:05;94492.09;;;13.53;100.00
35989;BME280;22064;42.672;23.282;2023-04-30T07:54:35;94487.38;;;13.50;100.00
35989;BME280;22064;42.672;23.282;2023-04-30T07:57:04;94488.38;;;13.64;100.00
35989;BME280;22064;42.672;23.282;2023-04-30T07:59:30;94482.38;;;13.63;100.00
35989;BME280;22064;42.672;23.282;2023-04-30T08:01:56;94484.19;;;13.78;100.00
35989;BME280;22064;42.672;23.282;2023-04-30T08:04:22;94476.53;;;13.97;100.00
35989;BME280;22064;42.672;23.282;2023-04-30T08:06:48;94483.66;;;13.76;100.00
35989;BME280;22064;42.672;23.282;2023-04-30T08:09:14;94486.00;;;13.88;100.00
35989;BME280;22064;42.672;23.282;2023-04-30T08:11:40;94491.63;;;14.26;100.00
35989;BME280;22064;42.672;23.282;2023-04-30T08:14:06;94493.41;;;14.36;100.00
35989;BME280;22064;42.672;23.282;2023-04-30T08:16:32;94488.28;;;14.10;100.00
35989;BME280;22064;42.672;23.282;2023-04-30T08:18:58;94491.22;;;13.88;100.00
35989;BME280;22064;42.672;23.282;2023-04-30T08:21:25;94503.28;;;13.84;100.00
35989;BME280;22064;42.672;23.282;2023-04-30T08:23:53;94492.00;;;13.99;100.00
35989;BME280;22064;42.672;23.282;2023-04-30T08:26:19;94493.75;;;14.19;100.00
35989;BME280;22064;42.672;23.282;2023-04-30T08:28:45;94500.84;;;14.08;100.00
35989;BME280;22064;42.672;23.282;2023-04-30T08:31:12;94495.25;;;14.35;100.00
35989;BME280;22064;42.672;23.282;2023-04-30T08:33:38;94485.09;;;14.83;100.00
35989;BME280;22064;42.672;23.282;2023-04-30T08:36:04;94490.59;;;14.82;100.00
35989;BME280;22064;42.672;23.282;2023-04-30T08:38:30;94491.28;;;14.97;100.00
35989;BME280;22064;42.672;23.282;2023-04-30T08:41:16;94488.56;;;15.13;100.00
35989;BME280;22064;42.672;23.282;2023-04-30T08:43:42;94485.56;;;14.95;100.00
35989;BME280;22064;42.672;23.282;2023-04-30T08:46:11;94477.56;;;15.45;96.95
35989;BME280;22064;42.672;23.282;2023-04-30T08:48:42;94480.25;;;15.69;87.77
35989;BME280;22064;42.672;23.282;2023-04-30T08:51:08;94476.16;;;15.58;86.37
35989;BME280;22064;42.672;23.282;2023-04-30T08:53:35;94484.47;;;15.01;86.01
35989;BME280;22064;42.672;23.282;2023-04-30T08:56:05;94470.53;;;15.06;93.84
35989;BME280;22064;42.672;23.282;2023-04-30T08:58:31;94477.19;;;15.28;85.67
35989;BME280;22064;42.672;23.282;2023-04-30T09:00:58;94472.97;;;15.61;85.17
35989;BME280;22064;42.672;23.282;2023-04-30T09:03:24;94470.06;;;15.91;77.32
35989;BME280;22064;42.672;23.282;2023-04-30T09:05:50;94459.09;;;15.84;79.22
35989;BME280;22064;42.672;23.282;2023-04-30T09:08:17;94452.78;;;16.09;74.48
35989;BME280;22064;42.672;23.282;2023-04-30T09:10:44;94438.16;;;16.46;70.00
35989;BME280;22064;42.672;23.282;2023-04-30T09:13:11;94446.34;;;16.63;67.77
35989;BME280;22064;42.672;23.282;2023-04-30T09:15:38;94444.66;;;16.92;65.03
35989;BME280;22064;42.672;23.282;2023-04-30T09:18:14;94457.78;;;16.11;70.54
35989;BME280;22064;42.672;23.282;2023-04-30T09:20:56;94448.34;;;15.86;73.31
35989;BME280;22064;42.672;23.282;2023-04-30T09:23:23;94431.69;;;15.96;74.13
35989;BME280;22064;42.672;23.282;2023-04-30T09:25:50;94438.63;;;15.86;72.98
35989;BME280;22064;42.672;23.282;2023-04-30T09:28:17;94444.19;;;16.04;69.63
35989;BME280;22064;42.672;23.282;2023-04-30T09:30:48;94438.19;;;16.22;70.99
35989;BME280;22064;42.672;23.282;2023-04-30T09:33:14;94414.81;;;16.63;65.96
35989;BME280;22064;42.672;23.282;2023-04-30T09:35:40;94436.66;;;16.59;66.05
35989;BME280;22064;42.672;23.282;2023-04-30T09:38:28;94430.50;;;16.69;67.37
35989;BME280;22064;42.672;23.282;2023-04-30T09:40:54;94426.44;;;17.14;62.68
35989;BME280;22064;42.672;23.282;2023-04-30T09:43:20;94418.78;;;16.42;67.46
35989;BME280;22064;42.672;23.282;2023-04-30T09:45:47;94408.63;;;16.73;68.36
35989;BME280;22064;42.672;23.282;2023-04-30T09:48:14;94419.25;;;17.34;65.54
35989;BME280;22064;42.672;23.282;2023-04-30T09:50:41;94415.16;;;16.95;59.97
35989;BME280;22064;42.672;23.282;2023-04-30T09:53:09;94428.72;;;17.35;59.19
35989;BME280;22064;42.672;23.282;2023-04-30T09:55:35;94406.78;;;16.93;61.35
35989;BME280;22064;42.672;23.282;2023-04-30T09:58:05;94419.69;;;17.08;60.36
35989;BME280;22064;42.672;23.282;2023-04-30T10:00:35;94413.41;;;17.04;60.65
35989;BME280;22064;42.672;23.282;2023-04-30T10:03:08;94392.75;;;17.44;59.39
35989;BME280;22064;42.672;23.282;2023-04-30T10:05:45;94405.50;;;17.23;58.49
35989;BME280;22064;42.672;23.282;2023-04-30T10:08:25;94401.25;;;17.41;58.30
35989;BME280;22064;42.672;23.282;2023-04-30T10:10:58;94396.22;;;17.25;59.37
35989;BME280;22064;42.672;23.282;2023-04-30T10:13:29;94397.25;;;17.43;59.17
35989;BME280;22064;42.672;23.282;2023-04-30T10:15:58;94403.56;;;17.28;58.76
35989;BME280;22064;42.672;23.282;2023-04-30T10:18:41;94395.22;;;17.07;62.29
35989;BME280;22064;42.672;23.282;2023-04-30T10:21:08;94396.66;;;17.00;61.76
35989;BME280;22064;42.672;23.282;2023-04-30T10:23:37;94448.78;;;16.17;73.11
35989;BME280;22064;42.672;23.282;2023-04-30T10:26:10;94461.41;;;15.62;93.28
35989;BME280;22064;42.672;23.282;2023-04-30T10:28:37;94463.75;;;14.50;100.00
35989;BME280;22064;42.672;23.282;2023-04-30T10:31:07;94484.47;;;13.10;100.00
35989;BME280;22064;42.672;23.282;2023-04-30T10:39:05;94445.16;;;12.39;100.00
35989;BME280;22064;42.672;23.282;2023-04-30T10:41:32;94438.16;;;12.55;100.00
35989;BME280;22064;42.672;23.282;2023-04-30T10:44:00;94444.97;;;12.86;100.00
35989;BME280;22064;42.672;23.282;2023-04-30T10:46:27;94446.31;;;13.04;100.00
35989;BME280;22064;42.672;23.282;2023-04-30T10:48:54;94445.78;;;13.33;100.00
35989;BME280;22064;42.672;23.282;2023-04-30T10:51:21;94440.53;;;13.48;100.00
35989;BME280;22064;42.672;23.282;2023-04-30T10:53:50;94423.75;;;13.75;100.00
35989;BME280;22064;42.672;23.282;2023-04-30T10:56:32;94433.09;;;13.96;100.00
35989;BME280;22064;42.672;23.282;2023-04-30T10:58:59;94425.72;;;14.08;100.00
35989;BME280;22064;42.672;23.282;2023-04-30T11:01:27;94428.41;;;14.53;100.00
35989;BME280;22064;42.672;23.282;2023-04-30T11:04:07;94426.06;;;14.91;100.00
35989;BME280;22064;42.672;23.282;2023-04-30T11:09:43;94417.06;;;15.89;100.00
35989;BME280;22064;42.672;23.282;2023-04-30T11:12:19;94414.66;;;16.36;100.00
35989;BME280;22064;42.672;23.282;2023-04-30T11:15:03;94414.00;;;16.63;100.00
35989;BME280;22064;42.672;23.282;2023-04-30T11:17:31;94409.41;;;16.55;85.92
35989;BME280;22064;42.672;23.282;2023-04-30T11:19:59;94414.56;;;16.41;80.16
35989;BME280;22064;42.672;23.282;2023-04-30T11:22:28;94407.50;;;16.79;76.15
35989;BME280;22064;42.672;23.282;2023-04-30T11:25:04;94408.13;;;16.90;76.71
35989;BME280;22064;42.672;23.282;2023-04-30T11:27:32;94408.53;;;16.59;71.75
35989;BME280;22064;42.672;23.282;2023-04-30T11:30:00;94415.69;;;16.73;74.01
35989;BME280;22064;42.672;23.282;2023-04-30T11:32:32;94416.63;;;16.63;59.83
35989;BME280;22064;42.672;23.282;2023-04-30T11:35:03;94401.69;;;16.82;59.85
35989;BME280;22064;42.672;23.282;2023-04-30T11:37:34;94400.38;;;16.99;62.12
35989;BME280;22064;42.672;23.282;2023-04-30T11:40:03;94407.44;;;17.17;60.47
35989;BME280;22064;42.672;23.282;2023-04-30T11:42:29;94404.47;;;17.05;63.83
35989;BME280;22064;42.672;23.282;2023-04-30T11:45:08;94411.97;;;17.44;62.04
35989;BME280;22064;42.672;23.282;2023-04-30T11:50:05;94402.97;;;17.31;64.54
35989;BME280;22064;42.672;23.282;2023-04-30T11:52:31;94409.25;;;17.36;64.94
35989;BME280;22064;42.672;23.282;2023-04-30T11:54:57;94399.34;;;17.60;77.25
35989;BME280;22064;42.672;23.282;2023-04-30T11:57:24;94393.59;;;17.99;81.00
35989;BME280;22064;42.672;23.282;2023-04-30T11:59:50;94386.91;;;18.66;74.40
35989;BME280;22064;42.672;23.282;2023-04-30T12:02:16;94390.13;;;19.22;64.77
35989;BME280;22064;42.672;23.282;2023-04-30T12:04:43;94382.66;;;19.46;60.76
35989;BME280;22064;42.672;23.282;2023-04-30T12:07:09;94379.72;;;19.48;57.18
35989;BME280;22064;42.672;23.282;2023-04-30T12:09:54;94387.00;;;19.73;60.71
35989;BME280;22064;42.672;23.282;2023-04-30T12:12:28;94386.38;;;19.45;65.71
35989;BME280;22064;42.672;23.282;2023-04-30T12:14:54;94383.28;;;19.21;66.11
35989;BME280;22064;42.672;23.282;2023-04-30T12:17:41;94399.03;;;19.26;64.89
35989;BME280;22064;42.672;23.282;2023-04-30T12:20:08;94399.50;;;19.05;75.92
35989;BME280;22064;42.672;23.282;2023-04-30T12:22:35;94401.84;;;18.70;78.68
35989;BME280;22064;42.672;23.282;2023-04-30T12:25:10;94411.63;;;18.34;82.39
35989;BME280;22064;42.672;23.282;2023-04-30T12:27:44;94412.63;;;17.83;76.34
35989;BME280;22064;42.672;23.282;2023-04-30T12:30:10;94430.03;;;17.18;79.87
35989;BME280;22064;42.672;23.282;2023-04-30T12:32:42;94431.31;;;17.21;84.69
35989;BME280;22064;42.672;23.282;2023-04-30T12:35:19;94441.19;;;17.10;94.73
35989;BME280;22064;42.672;23.282;2023-04-30T12:37:47;94436.28;;;17.22;100.00
35989;BME280;22064;42.672;23.282;2023-04-30T12:40:14;94426.75;;;17.26;100.00
35989;BME280;22064;42.672;23.282;2023-04-30T12:42:41;94422.66;;;17.20;99.87
35989;BME280;22064;42.672;23.282;2023-04-30T12:45:08;94427.41;;;17.51;99.54
35989;BME280;22064;42.672;23.282;2023-04-30T12:47:39;94425.66;;;17.74;98.41
35989;BME280;22064;42.672;23.282;2023-04-30T12:50:10;94427.66;;;17.96;98.37
35989;BME280;22064;42.672;23.282;2023-04-30T12:52:39;94432.25;;;18.04;99.50
35989;BME280;22064;42.672;23.282;2023-04-30T12:55:18;94440.63;;;17.92;100.00
35989;BME280;22064;42.672;23.282;2023-04-30T12:58:07;94433.13;;;17.99;100.00
35989;BME280;22064;42.672;23.282;2023-04-30T13:03:08;94433.88;;;18.28;94.23
35989;BME280;22064;42.672;23.282;2023-04-30T13:05:34;94433.75;;;18.60;90.36
35989;BME280;22064;42.672;23.282;2023-04-30T13:08:03;94424.31;;;18.68;89.65
35989;BME280;22064;42.672;23.282;2023-04-30T13:10:32;94417.47;;;18.81;83.67
35989;BME280;22064;42.672;23.282;2023-04-30T13:12:58;94414.84;;;19.03;81.09
35989;BME280;22064;42.672;23.282;2023-04-30T13:15:24;94404.16;;;19.31;76.92
35989;BME280;22064;42.672;23.282;2023-04-30T13:17:51;94393.97;;;19.47;73.47
35989;BME280;22064;42.672;23.282;2023-04-30T13:20:18;94369.31;;;19.51;69.50